KSFY

Tri-Township Airport

Savanna, Illinois, USA
METAR KSFY 201656Z AUTO 32024G33KT 10SM CLR 09/M07 A2999 RMK AO2
Observed Flight Rules
Oct-20 @ 16:56 UTC (22 minutes ago) Visual Flight Rules
Wind Visibility Clouds
320° at 24 knots
 Gusting to 33 knots
10 miles
  • Clear skies
Temperatures Readings
Current 9°C / 48°F
Dewpoint -7°C / 19°F
Humidity 32%
Altimeter 29.99" Hg
Pressure 1016 hPa
Elevation 188
METAR KSFY 201656Z AUTO 32024G33KT 10SM CLR 09/M07 A2999 RMK AO2
Observed Flight Rules
Oct-20 @ 16:56 UTC
(22 minutes ago)
VFR
Wind Visibility
320° at 24 knots
 Gusting to 33 knots
10 miles
Clouds
  • Clear skies
Temperature Dewpoint
9°C / 48°F -7°C / 19°F
Humidity Altimeter Pressure
32% 29.99" Hg 1016 hPa